Time,TemperatureF,DewpointF,PressureIn,WindDirection,WindDirectionDegrees,WindSpeedMPH,WindSpeedGustMPH,Humidity,HourlyPrecipIn,Conditions,Clouds,dailyrainin,SolarRadiationWatts/m^2,SoftwareType,DateUTC
2013-02-14 00:02:00,37.0,35.0,-100.00,SSW,210,2.0,6.0,94,0.00,,,0.08,0.000000,,2013-02-14 06:02:00,
2013-02-14 00:32:00,35.0,34.0,-100.00,South,191,2.0,5.0,96,0.00,,,-99.99,0.000000,,2013-02-14 06:32:00,
2013-02-14 00:42:00,35.0,34.0,-100.00,South,191,2.0,5.0,96,0.00,,,-99.99,0.000000,,2013-02-14 06:42:00,
2013-02-14 00:52:00,35.0,34.0,-100.00,South,191,2.0,5.0,96,0.00,,,-99.99,0.000000,,2013-02-14 06:52:00,
2013-02-14 01:01:00,35.0,34.0,-100.00,South,191,2.0,5.0,96,0.00,,,-99.99,0.000000,,2013-02-14 07:01:00,
2013-02-14 01:32:00,35.0,34.0,-100.00,SSE,156,2.0,4.0,97,0.00,,,0.08,0.000000,,2013-02-14 07:32:00,
2013-02-14 01:42:00,35.0,34.0,-100.00,SSE,156,2.0,4.0,97,0.00,,,0.08,0.000000,,2013-02-14 07:42:00,
2013-02-14 01:52:00,35.0,34.0,-100.00,SSE,156,2.0,4.0,97,0.00,,,0.08,0.000000,,2013-02-14 07:52:00,
2013-02-14 02:01:00,35.0,34.0,-100.00,SSE,156,2.0,4.0,97,0.00,,,0.08,0.000000,,2013-02-14 08:01:00,
2013-02-14 02:32:00,35.0,34.0,-100.00,South,188,3.0,5.0,98,0.00,,,0.08,0.000000,,2013-02-14 08:32:00,
2013-02-14 02:43:00,35.0,34.0,-100.00,South,188,3.0,5.0,98,0.00,,,0.08,0.000000,,2013-02-14 08:43:00,
2013-02-14 02:52:00,35.0,34.0,-100.00,South,188,3.0,5.0,98,0.00,,,0.08,0.000000,,2013-02-14 08:52:00,
2013-02-14 03:02:00,35.0,34.0,-100.00,South,188,3.0,5.0,98,0.00,,,0.08,0.000000,,2013-02-14 09:02:00,
2013-02-14 03:32:00,34.0,33.0,-100.00,South,178,2.0,5.0,97,0.00,,,0.08,0.000000,,2013-02-14 09:32:00,
2013-02-14 03:42:00,34.0,33.0,-100.00,South,178,2.0,5.0,97,0.00,,,0.08,0.000000,,2013-02-14 09:42:00,
2013-02-14 03:52:00,34.0,33.0,-100.00,South,178,2.0,5.0,97,0.00,,,0.08,0.000000,,2013-02-14 09:52:00,
2013-02-14 04:02:00,34.0,33.0,-100.00,South,178,2.0,5.0,97,0.00,,,0.08,0.000000,,2013-02-14 10:02:00,
2013-02-14 04:32:00,34.0,34.0,-100.00,South,178,2.0,6.0,98,0.00,,,0.07,0.000000,,2013-02-14 10:32:00,
2013-02-14 04:42:00,34.0,34.0,-100.00,South,178,2.0,6.0,98,0.00,,,0.07,0.000000,,2013-02-14 10:42:00,
2013-02-14 04:52:00,34.0,34.0,-100.00,South,178,2.0,6.0,98,0.00,,,0.07,0.000000,,2013-02-14 10:52:00,
2013-02-14 05:02:00,34.0,34.0,-100.00,South,178,2.0,6.0,98,0.00,,,0.07,0.000000,,2013-02-14 11:02:00,
2013-02-14 05:32:00,34.0,34.0,-100.00,South,186,3.0,6.0,98,0.00,,,-99.99,0.000000,,2013-02-14 11:32:00,
2013-02-14 05:42:00,34.0,34.0,-100.00,South,186,3.0,6.0,98,0.00,,,-99.99,0.000000,,2013-02-14 11:42:00,
2013-02-14 05:52:00,34.0,34.0,-100.00,South,186,3.0,6.0,98,0.00,,,-99.99,0.000000,,2013-02-14 11:52:00,
2013-02-14 06:02:00,34.0,34.0,-100.00,South,186,3.0,6.0,98,0.00,,,-99.99,0.000000,,2013-02-14 12:02:00,
2013-02-14 06:32:00,34.0,34.0,-100.00,South,189,3.0,6.0,98,0.00,,,0.05,0.000000,,2013-02-14 12:32:00,
2013-02-14 06:42:00,34.0,34.0,-100.00,South,189,3.0,6.0,98,0.00,,,0.05,0.000000,,2013-02-14 12:42:00,
2013-02-14 06:53:00,34.0,34.0,-100.00,South,189,3.0,6.0,98,0.00,,,0.05,0.000000,,2013-02-14 12:53:00,
2013-02-14 07:02:00,34.0,34.0,-100.00,South,189,3.0,6.0,98,0.00,,,0.05,0.000000,,2013-02-14 13:02:00,
2013-02-14 08:32:00,37.0,36.0,-100.00,SSW,196,2.0,6.0,97,-99.99,,,0.02,44.000000,,2013-02-14 14:32:00,
2013-02-14 08:42:00,37.0,36.0,-100.00,SSW,196,2.0,6.0,97,-99.99,,,0.02,44.000000,,2013-02-14 14:42:00,
2013-02-14 08:52:00,37.0,36.0,-100.00,SSW,196,2.0,6.0,97,-99.99,,,0.02,44.000000,,2013-02-14 14:52:00,
2013-02-14 09:01:00,37.0,36.0,-100.00,SSW,196,2.0,6.0,97,-99.99,,,0.02,44.000000,,2013-02-14 15:01:00,
2013-02-14 09:32:00,43.0,38.0,-100.00,SW,214,5.0,10.0,81,0.00,,,0.01,232.000000,,2013-02-14 15:32:00,
2013-02-14 09:42:00,43.0,38.0,-100.00,SW,214,5.0,10.0,81,0.00,,,0.01,232.000000,,2013-02-14 15:42:00,
2013-02-14 09:52:00,43.0,38.0,-100.00,SW,214,5.0,10.0,81,0.00,,,0.01,232.000000,,2013-02-14 15:52:00,
2013-02-14 10:01:00,43.0,38.0,-100.00,SW,214,5.0,10.0,81,0.00,,,0.01,232.000000,,2013-02-14 16:01:00,
2013-02-14 10:32:00,47.0,38.0,-100.00,SW,233,6.0,14.0,71,0.00,,,0.00,503.000000,,2013-02-14 16:32:00,
2013-02-14 10:42:00,47.0,38.0,-100.00,SW,233,6.0,14.0,71,0.00,,,0.00,503.000000,,2013-02-14 16:42:00,
2013-02-14 10:52:00,47.0,38.0,-100.00,SW,233,6.0,14.0,71,0.00,,,0.00,503.000000,,2013-02-14 16:52:00,
2013-02-14 11:01:00,47.0,38.0,-100.00,SW,233,6.0,14.0,71,0.00,,,0.00,503.000000,,2013-02-14 17:01:00,
2013-02-14 11:32:00,50.0,38.0,-100.00,WSW,244,7.0,14.0,62,0.00,,,0.00,649.000000,,2013-02-14 17:32:00,
2013-02-14 11:42:00,50.0,38.0,-100.00,WSW,244,7.0,14.0,62,0.00,,,0.00,649.000000,,2013-02-14 17:42:00,
2013-02-14 11:52:00,50.0,38.0,-100.00,WSW,244,7.0,14.0,62,0.00,,,0.00,649.000000,,2013-02-14 17:52:00,
2013-02-14 12:01:00,50.0,38.0,-100.00,WSW,244,7.0,14.0,62,0.00,,,0.00,649.000000,,2013-02-14 18:01:00,
2013-02-14 12:32:00,53.0,37.0,-100.00,WSW,242,6.0,15.0,54,0.00,,,0.00,731.000000,,2013-02-14 18:32:00,
2013-02-14 12:42:00,53.0,37.0,-100.00,WSW,242,6.0,15.0,54,0.00,,,0.00,731.000000,,2013-02-14 18:42:00,
2013-02-14 12:52:00,53.0,37.0,-100.00,WSW,242,6.0,15.0,54,0.00,,,0.00,731.000000,,2013-02-14 18:52:00,
2013-02-14 13:02:00,53.0,37.0,-100.00,WSW,242,6.0,15.0,54,0.00,,,0.00,731.000000,,2013-02-14 19:02:00,
2013-02-14 13:32:00,56.0,37.0,-100.00,WSW,255,8.0,14.0,49,0.00,,,0.00,740.000000,,2013-02-14 19:32:00,
2013-02-14 13:42:00,56.0,37.0,-100.00,WSW,255,8.0,14.0,49,0.00,,,0.00,740.000000,,2013-02-14 19:42:00,
2013-02-14 13:52:00,56.0,37.0,-100.00,WSW,255,8.0,14.0,49,0.00,,,0.00,740.000000,,2013-02-14 19:52:00,
2013-02-14 14:01:00,56.0,37.0,-100.00,WSW,255,8.0,14.0,49,0.00,,,0.00,740.000000,,2013-02-14 20:01:00,
2013-02-14 14:32:00,58.0,38.0,-100.00,WSW,241,7.0,15.0,47,0.00,,,0.00,687.000000,,2013-02-14 20:32:00,
2013-02-14 14:42:00,58.0,38.0,-100.00,WSW,241,7.0,15.0,47,0.00,,,0.00,687.000000,,2013-02-14 20:42:00,
2013-02-14 14:52:00,58.0,38.0,-100.00,WSW,241,7.0,15.0,47,0.00,,,0.00,687.000000,,2013-02-14 20:52:00,
2013-02-14 15:02:00,58.0,38.0,-100.00,WSW,241,7.0,15.0,47,0.00,,,0.00,687.000000,,2013-02-14 21:02:00,
2013-02-14 15:32:00,59.0,37.0,-100.00,SW,236,8.0,14.0,44,0.00,,,0.00,589.000000,,2013-02-14 21:32:00,
2013-02-14 15:42:00,59.0,37.0,-100.00,SW,236,8.0,14.0,44,0.00,,,0.00,589.000000,,2013-02-14 21:42:00,
2013-02-14 15:52:00,59.0,37.0,-100.00,SW,236,8.0,14.0,44,0.00,,,0.00,589.000000,,2013-02-14 21:52:00,
2013-02-14 16:02:00,59.0,37.0,-100.00,SW,236,8.0,14.0,44,0.00,,,0.00,589.000000,,2013-02-14 22:02:00,
2013-02-14 16:32:00,57.0,38.0,-100.00,SSW,206,4.0,14.0,48,0.00,,,0.00,309.000000,,2013-02-14 22:32:00,
2013-02-14 16:42:00,57.0,38.0,-100.00,SSW,206,4.0,14.0,48,0.00,,,0.00,309.000000,,2013-02-14 22:42:00,
2013-02-14 16:52:00,57.0,38.0,-100.00,SSW,206,4.0,14.0,48,0.00,,,0.00,309.000000,,2013-02-14 22:52:00,
2013-02-14 17:01:00,57.0,38.0,-100.00,SSW,206,4.0,14.0,48,0.00,,,0.00,309.000000,,2013-02-14 23:01:00,
2013-02-14 17:32:00,55.0,40.0,-100.00,SSW,209,4.0,12.0,57,0.00,,,0.00,111.000000,,2013-02-14 23:32:00,
2013-02-14 17:42:00,55.0,40.0,-100.00,SSW,209,4.0,12.0,57,0.00,,,0.00,111.000000,,2013-02-14 23:42:00,
2013-02-14 17:52:00,55.0,40.0,-100.00,SSW,209,4.0,12.0,57,0.00,,,0.00,111.000000,,2013-02-14 23:52:00,
2013-02-14 18:01:00,55.0,40.0,-100.00,SSW,209,4.0,12.0,57,0.00,,,0.00,111.000000,,2013-02-15 00:01:00,
2013-02-14 18:32:00,51.0,39.0,-100.00,West,265,3.0,8.0,64,0.00,,,-99.99,10.000000,,2013-02-15 00:32:00,
2013-02-14 18:42:00,51.0,39.0,-100.00,West,265,3.0,8.0,64,0.00,,,-99.99,10.000000,,2013-02-15 00:42:00,
2013-02-14 18:52:00,51.0,39.0,-100.00,West,265,3.0,8.0,64,0.00,,,-99.99,10.000000,,2013-02-15 00:52:00,
2013-02-14 19:02:00,51.0,39.0,-100.00,West,265,3.0,8.0,64,0.00,,,-99.99,10.000000,,2013-02-15 01:02:00,
2013-02-14 19:32:00,51.0,40.0,-100.00,WNW,282,3.0,5.0,65,0.00,,,-99.99,0.000000,,2013-02-15 01:32:00,
2013-02-14 19:42:00,51.0,40.0,-100.00,WNW,282,3.0,5.0,65,0.00,,,-99.99,0.000000,,2013-02-15 01:42:00,
2013-02-14 19:52:00,51.0,40.0,-100.00,WNW,282,3.0,5.0,65,0.00,,,-99.99,0.000000,,2013-02-15 01:52:00,
2013-02-14 20:01:00,51.0,40.0,-100.00,WNW,282,3.0,5.0,65,0.00,,,-99.99,0.000000,,2013-02-15 02:01:00,
2013-02-14 20:32:00,47.0,39.0,-100.00,NW,313,3.0,9.0,73,0.00,,,0.00,0.000000,,2013-02-15 02:32:00,
2013-02-14 20:42:00,47.0,39.0,-100.00,NW,313,3.0,9.0,73,0.00,,,0.00,0.000000,,2013-02-15 02:42:00,
2013-02-14 20:52:00,47.0,39.0,-100.00,NW,313,3.0,9.0,73,0.00,,,0.00,0.000000,,2013-02-15 02:52:00,
2013-02-14 21:02:00,47.0,39.0,-100.00,NW,313,3.0,9.0,73,0.00,,,0.00,0.000000,,2013-02-15 03:02:00,
2013-02-14 22:32:00,45.0,31.0,-100.00,NNW,347,5.0,7.0,58,-99.99,,,0.00,0.000000,,2013-02-15 04:32:00,
2013-02-14 22:42:00,45.0,31.0,-100.00,NNW,347,5.0,7.0,58,-99.99,,,0.00,0.000000,,2013-02-15 04:42:00,
2013-02-14 22:52:00,45.0,31.0,-100.00,NNW,347,5.0,7.0,58,-99.99,,,0.00,0.000000,,2013-02-15 04:52:00,
2013-02-14 23:02:00,45.0,31.0,-100.00,NNW,347,5.0,7.0,58,-99.99,,,0.00,0.000000,,2013-02-15 05:02:00,
2013-02-14 23:32:00,44.0,31.0,-100.00,North,4,4.0,8.0,60,0.00,,,0.00,0.000000,,2013-02-15 05:32:00,
2013-02-14 23:42:00,44.0,31.0,-100.00,North,4,4.0,8.0,60,0.00,,,0.00,0.000000,,2013-02-15 05:42:00,
2013-02-14 23:52:00,44.0,31.0,-100.00,North,4,4.0,8.0,60,0.00,,,0.00,0.000000,,2013-02-15 05:52:00,